createdAt,value
2018-01-31T01:52:20.408Z,14.33
2018-01-31T01:52:21.110Z,14.93
2018-01-31T01:54:22.651Z,11.10
2018-01-31T01:56:50.315Z,13.13
2018-01-31T01:59:17.935Z,14.20
2018-01-31T02:01:45.494Z,15.53
2018-01-31T02:04:13.053Z,12.00
2018-01-31T02:06:40.613Z,14.60
2018-01-31T02:09:08.173Z,15.70
2018-01-31T02:11:35.633Z,13.83
2018-01-31T02:14:03.190Z,18.17
2018-01-31T02:16:30.661Z,19.50
2018-01-31T02:18:58.142Z,17.63
2018-01-31T02:21:25.669Z,18.27
2018-01-31T02:23:53.222Z,12.90
2018-01-31T02:26:20.883Z,18.47
2018-01-31T02:28:48.443Z,14.37
2018-01-31T02:31:16.104Z,19.40
2018-01-31T02:33:43.669Z,17.90
2018-01-31T02:36:11.084Z,20.07
2018-01-31T02:38:44.722Z,13.80
2018-01-31T02:41:12.229Z,19.47
2018-01-31T02:43:39.738Z,15.53
2018-01-31T02:46:07.298Z,20.17
2018-01-31T02:48:34.707Z,17.03
2018-01-31T02:51:02.217Z,20.30
2018-01-31T02:53:29.772Z,23.13
2018-01-31T02:55:57.167Z,18.30
2018-01-31T02:58:24.622Z,18.47
2018-01-31T03:00:52.180Z,22.33
2018-01-31T03:03:19.645Z,19.80
2018-01-31T03:05:47.159Z,18.57
2018-01-31T03:08:14.609Z,16.50
2018-01-31T03:10:42.176Z,24.83
2018-01-31T03:13:09.668Z,23.73
2018-01-31T03:15:37.125Z,16.90
2018-01-31T03:18:04.857Z,21.20
2018-01-31T03:20:32.415Z,19.93
2018-01-31T03:22:59.914Z,30.00
2018-01-31T03:25:27.533Z,23.20
2018-01-31T03:27:55.091Z,22.87
2018-01-31T03:30:22.549Z,27.23
2018-01-31T03:32:50.110Z,18.80
2018-01-31T03:35:17.669Z,18.00
2018-01-31T03:37:45.228Z,20.37
2018-01-31T03:40:12.788Z,22.70
2018-01-31T03:42:40.282Z,25.90
2018-01-31T03:45:07.766Z,20.10
2018-01-31T03:47:35.363Z,24.23
2018-01-31T03:50:02.923Z,20.93
2018-01-31T03:52:30.416Z,25.80
2018-01-31T03:54:57.938Z,30.67
2018-01-31T03:57:25.600Z,21.90
2018-01-31T03:59:53.467Z,27.53
2018-01-31T04:02:20.974Z,20.90
2018-01-31T04:04:48.588Z,30.70
2018-01-31T04:07:16.350Z,27.23
2018-01-31T04:09:43.909Z,28.30
2018-01-31T04:12:11.469Z,26.83
2018-01-31T04:14:38.960Z,22.50
2018-01-31T04:17:06.588Z,27.23
2018-01-31T04:19:34.148Z,24.10
2018-01-31T04:22:01.764Z,23.40
2018-01-31T04:24:29.319Z,26.50
2018-01-31T04:26:56.928Z,26.73
2018-01-31T04:29:24.491Z,25.70
2018-01-31T04:31:52.050Z,27.97
2018-01-31T04:34:19.607Z,26.87
2018-01-31T04:36:47.166Z,22.27
2018-01-31T04:39:14.670Z,28.43
2018-01-31T04:41:42.224Z,33.53
2018-01-31T04:44:09.746Z,27.43
2018-01-31T04:46:37.304Z,28.53
2018-01-31T04:49:04.798Z,22.77
2018-01-31T04:51:32.419Z,22.30
2018-01-31T04:53:59.980Z,22.50
2018-01-31T04:56:27.471Z,25.67
2018-01-31T04:58:55.145Z,24.13
2018-01-31T05:01:22.659Z,23.93
2018-01-31T05:03:50.108Z,24.10
2018-01-31T05:06:17.676Z,22.03
2018-01-31T05:08:45.355Z,21.30
2018-01-31T05:11:13.007Z,24.23
2018-01-31T05:13:40.560Z,22.17
2018-01-31T05:16:08.057Z,25.93
2018-01-31T05:18:35.983Z,20.60
2018-01-31T05:21:04.054Z,20.27
2018-01-31T05:23:31.614Z,26.57
2018-01-31T05:25:59.073Z,22.20
2018-01-31T05:28:26.540Z,18.97
2018-01-31T05:30:54.088Z,19.33
2018-01-31T05:33:21.580Z,22.87
2018-01-31T05:35:49.040Z,20.10
2018-01-31T05:38:16.600Z,22.67
2018-01-31T05:40:44.228Z,22.50
2018-01-31T05:43:11.783Z,25.73
2018-01-31T05:45:39.342Z,19.87
2018-01-31T05:48:06.760Z,21.13
2018-01-31T05:50:34.359Z,19.37
2018-01-31T05:53:01.861Z,22.30
2018-01-31T05:55:29.477Z,18.13
2018-01-31T05:57:56.980Z,22.20
2018-01-31T06:00:24.431Z,23.00
2018-01-31T06:02:51.952Z,23.03
2018-01-31T06:05:19.444Z,24.63
2018-01-31T06:07:47.074Z,21.83
2018-01-31T06:10:14.648Z,23.67
2018-01-31T06:12:42.189Z,25.80
2018-01-31T06:15:09.748Z,18.20
2018-01-31T06:17:37.311Z,23.37
2018-01-31T06:20:04.784Z,23.13
2018-01-31T06:22:32.257Z,21.83
2018-01-31T06:24:59.782Z,22.97
2018-01-31T06:27:27.341Z,23.20
2018-01-31T06:29:54.753Z,21.07
2018-01-31T06:32:22.971Z,20.90
2018-01-31T06:34:50.429Z,23.30
2018-01-31T06:37:17.988Z,20.83
2018-01-31T06:39:45.547Z,26.30
2018-01-31T06:42:12.948Z,20.43
2018-01-31T06:44:40.461Z,19.47
2018-01-31T06:47:08.020Z,19.77
2018-01-31T06:49:35.527Z,23.20
2018-01-31T06:52:03.037Z,25.67
2018-01-31T06:54:30.596Z,20.67
2018-01-31T06:56:58.092Z,19.13
2018-01-31T06:59:25.613Z,23.27
2018-01-31T07:01:53.172Z,18.43
2018-01-31T07:04:20.732Z,25.43
2018-01-31T07:06:48.292Z,19.00
2018-01-31T07:09:15.851Z,22.20
2018-01-31T07:11:43.344Z,23.73
2018-01-31T07:14:10.748Z,22.27
2018-01-31T07:16:38.324Z,31.23
2018-01-31T07:19:05.884Z,24.17
2018-01-31T07:21:33.386Z,19.97
2018-01-31T07:24:00.901Z,25.50
2018-01-31T07:26:28.304Z,22.50
2018-01-31T07:28:55.720Z,27.53
2018-01-31T07:31:23.477Z,22.37
2018-01-31T07:33:50.934Z,26.77
2018-01-31T07:36:18.498Z,25.53
2018-01-31T07:38:46.053Z,25.77
2018-01-31T07:41:13.817Z,19.00
2018-01-31T07:43:41.378Z,19.80
2018-01-31T07:46:08.936Z,26.20
2018-01-31T07:48:36.496Z,25.00
2018-01-31T07:51:04.065Z,20.50
2018-01-31T07:53:31.614Z,27.17
2018-01-31T07:55:59.178Z,20.20
2018-01-31T07:58:26.732Z,27.67
2018-01-31T08:00:54.229Z,22.83
2018-01-31T08:03:21.852Z,29.00
2018-01-31T08:05:49.300Z,26.50
2018-01-31T08:08:16.869Z,34.77
2018-01-31T08:10:44.363Z,26.50
2018-01-31T08:13:11.885Z,27.23
2018-01-31T08:15:39.444Z,26.33
2018-01-31T08:18:07.089Z,22.67
2018-01-31T08:20:34.602Z,21.67
2018-01-31T08:23:02.225Z,22.40
2018-01-31T08:25:29.784Z,25.83
2018-01-31T08:27:57.276Z,22.27
2018-01-31T08:30:24.735Z,22.90
2018-01-31T08:32:52.258Z,24.87
2018-01-31T08:35:19.752Z,20.47
2018-01-31T08:37:47.274Z,23.33
2018-01-31T08:40:14.833Z,25.83
2018-01-31T08:42:42.392Z,24.80
2018-01-31T08:45:09.953Z,28.67
2018-01-31T08:47:37.512Z,25.10
2018-01-31T08:50:05.073Z,25.43
2018-01-31T08:52:32.565Z,27.83
2018-01-31T08:55:00.089Z,25.10
2018-01-31T08:57:27.648Z,25.70
2018-01-31T08:59:55.207Z,24.33
2018-01-31T09:02:22.766Z,27.10
2018-01-31T09:04:50.262Z,28.40
2018-01-31T09:07:17.816Z,29.00
2018-01-31T09:09:45.257Z,23.90
2018-01-31T09:12:12.736Z,25.37
2018-01-31T09:14:40.159Z,23.60
2018-01-31T09:17:07.716Z,25.33
2018-01-31T09:19:35.274Z,29.17
2018-01-31T09:22:02.768Z,28.50
2018-01-31T09:24:30.216Z,24.47
2018-01-31T09:26:57.647Z,23.90
2018-01-31T09:29:25.094Z,26.40
2018-01-31T09:31:52.660Z,24.37
2018-01-31T09:34:20.159Z,24.47
2018-01-31T09:36:47.677Z,26.50
2018-01-31T09:39:15.171Z,23.90
2018-01-31T09:41:42.797Z,27.50
2018-01-31T09:44:10.292Z,23.90
2018-01-31T09:46:37.769Z,28.07
2018-01-31T09:49:05.372Z,23.90
2018-01-31T09:51:32.876Z,30.93
2018-01-31T09:54:00.389Z,24.57
2018-01-31T09:56:27.884Z,24.07
2018-01-31T09:58:55.405Z,29.63
2018-01-31T10:01:22.965Z,31.10
2018-01-31T10:03:51.060Z,27.30
2018-01-31T10:06:18.847Z,28.60
2018-01-31T10:08:46.396Z,30.00
2018-01-31T10:11:13.919Z,25.90
2018-01-31T10:13:41.417Z,29.43
2018-01-31T10:16:08.980Z,30.00
2018-01-31T10:18:36.494Z,32.43
2018-01-31T10:21:04.054Z,27.03
2018-01-31T10:23:31.563Z,32.00
2018-01-31T10:25:59.115Z,28.20
2018-01-31T10:28:26.669Z,32.43
2018-01-31T10:30:54.329Z,33.83
2018-01-31T10:33:21.851Z,29.00
2018-01-31T10:35:49.410Z,30.03
2018-01-31T10:38:17.220Z,33.40
2018-01-31T10:40:44.735Z,25.10
2018-01-31T10:43:12.294Z,28.30
2018-01-31T10:45:39.792Z,28.57
2018-01-31T10:48:07.245Z,29.27
2018-01-31T10:50:34.768Z,28.10
2018-01-31T10:53:02.329Z,33.03
2018-01-31T10:57:28.548Z,28.43
2018-01-31T10:57:57.649Z,31.87
2018-01-31T11:00:28.180Z,31.37
2018-01-31T11:02:55.629Z,26.10
2018-01-31T11:05:23.200Z,26.37
2018-01-31T11:07:51.166Z,23.47
2018-01-31T11:10:18.664Z,26.30
2018-01-31T11:12:46.284Z,27.90
2018-01-31T11:15:13.849Z,26.63
2018-01-31T11:17:41.403Z,23.37
2018-01-31T11:20:08.980Z,21.27
2018-01-31T11:22:36.469Z,23.63
2018-01-31T11:25:04.088Z,18.23
2018-01-31T11:27:31.641Z,20.60
2018-01-31T11:29:59.200Z,20.23
2018-01-31T11:32:26.808Z,19.40
2018-01-31T11:34:54.324Z,18.30
2018-01-31T11:37:22.084Z,17.77
2018-01-31T11:39:49.504Z,15.60
2018-01-31T11:42:16.998Z,14.63
2018-01-31T11:44:44.556Z,18.90
2018-01-31T11:47:13.038Z,14.43
2018-01-31T11:49:40.543Z,16.23
2018-01-31T11:52:08.976Z,15.90
2018-01-31T11:54:36.535Z,15.43
2018-01-31T11:57:04.038Z,13.90
2018-01-31T11:59:31.551Z,17.53
2018-01-31T12:01:59.045Z,11.60
2018-01-31T12:04:26.480Z,11.97
2018-01-31T12:06:54.034Z,12.50
2018-01-31T12:09:27.456Z,11.80
2018-01-31T12:11:54.916Z,12.30
2018-01-31T12:14:28.111Z,11.33
2018-01-31T12:17:01.589Z,10.80
2018-01-31T12:19:36.026Z,12.07
2018-01-31T12:22:09.386Z,11.33
2018-01-31T12:24:42.693Z,11.97
2018-01-31T12:27:16.280Z,10.40
2018-01-31T12:29:49.779Z,9.83
2018-01-31T12:32:23.380Z,9.37
2018-01-31T12:34:56.805Z,14.57
2018-01-31T12:37:30.275Z,8.87
2018-01-31T12:39:57.629Z,10.40
2018-01-31T12:42:24.984Z,13.90
2018-01-31T12:44:52.236Z,7.90
2018-01-31T12:47:25.669Z,7.47
2018-01-31T12:49:58.965Z,9.53
2018-01-31T12:52:32.527Z,7.80
2018-01-31T12:55:06.130Z,6.67
2018-01-31T12:57:39.565Z,10.00
2018-01-31T13:00:12.866Z,8.40
2018-01-31T13:02:55.182Z,6.10
2018-01-31T13:05:22.683Z,5.13
2018-01-31T13:08:06.012Z,6.17
2018-01-31T13:10:54.259Z,5.40
2018-01-31T13:13:27.495Z,5.30
2018-01-31T13:16:00.845Z,5.20
2018-01-31T13:18:47.246Z,6.33
2018-01-31T13:21:20.688Z,5.23
2018-01-31T13:23:54.084Z,5.90
2018-01-31T13:26:27.475Z,6.57
2018-01-31T13:29:01.036Z,4.80
2018-01-31T13:31:34.636Z,4.90
2018-01-31T13:34:08.040Z,4.10
2018-01-31T13:36:41.441Z,3.97
2018-01-31T13:39:14.826Z,5.03
2018-01-31T13:41:48.530Z,4.30
2018-01-31T13:44:22.232Z,3.73
2018-01-31T13:46:55.834Z,4.63
2018-01-31T13:49:29.264Z,3.87
2018-01-31T13:52:02.627Z,6.43
2018-01-31T13:54:36.056Z,3.77
2018-01-31T13:57:09.521Z,4.00
2018-01-31T13:59:43.020Z,2.60
2018-01-31T14:02:16.519Z,2.10
2018-01-31T14:04:50.122Z,6.50
2018-01-31T14:07:23.517Z,2.93
2018-01-31T14:09:57.118Z,3.57
2018-01-31T14:12:30.669Z,2.47
2018-01-31T14:15:14.870Z,3.67
2018-01-31T14:17:48.367Z,3.53
2018-01-31T14:20:21.704Z,2.90
2018-01-31T14:22:55.194Z,2.00
2018-01-31T14:25:28.525Z,2.80
2018-01-31T14:28:01.877Z,2.73
2018-01-31T14:30:35.247Z,2.30
2018-01-31T14:33:08.855Z,7.10
2018-01-31T14:35:42.146Z,3.90
2018-01-31T14:38:09.318Z,2.63
2018-01-31T14:40:36.576Z,6.07
2018-01-31T14:43:03.822Z,4.40
2018-01-31T14:45:31.053Z,15.43
2018-01-31T14:47:58.281Z,6.60
2018-01-31T14:50:25.427Z,19.27
2018-01-31T14:52:52.805Z,17.03
2018-01-31T14:55:20.099Z,4.50
2018-01-31T14:57:47.410Z,4.40
2018-01-31T15:00:14.663Z,4.50
2018-01-31T15:02:42.872Z,13.73
2018-01-31T15:05:10.124Z,7.30
2018-01-31T15:07:37.476Z,9.93
2018-01-31T15:10:04.636Z,4.97
2018-01-31T15:12:31.855Z,5.40
2018-01-31T15:14:59.199Z,6.30
2018-01-31T15:17:26.553Z,10.37
2018-01-31T15:19:54.012Z,5.40
2018-01-31T15:22:21.365Z,6.23
2018-01-31T15:24:48.618Z,12.53
2018-01-31T15:27:15.972Z,11.97
2018-01-31T15:29:43.225Z,10.40
2018-01-31T15:32:10.478Z,9.70
2018-01-31T15:34:37.728Z,4.70
2018-01-31T15:37:05.187Z,7.87
2018-01-31T15:39:32.541Z,7.07
2018-01-31T15:41:59.836Z,9.60
2018-01-31T15:44:27.149Z,7.97
2018-01-31T15:46:54.443Z,5.20
2018-01-31T15:49:21.754Z,7.13
2018-01-31T15:51:49.007Z,4.77
2018-01-31T15:54:16.361Z,3.70
2018-01-31T15:56:43.547Z,4.40
2018-01-31T15:59:10.808Z,2.60
2018-01-31T16:01:37.997Z,3.30
2018-01-31T16:04:05.472Z,2.20
2018-01-31T16:06:32.727Z,2.23
2018-01-31T16:08:59.908Z,1.73
2018-01-31T16:11:27.229Z,1.97
2018-01-31T16:13:54.515Z,2.10
2018-01-31T16:16:22.041Z,1.90
2018-01-31T16:18:55.539Z,2.10
2018-01-31T16:21:24.635Z,2.10
2018-01-31T16:23:52.195Z,1.93
2018-01-31T16:26:19.756Z,1.90
2018-01-31T16:28:53.411Z,1.90
2018-01-31T16:31:26.854Z,1.90
2018-01-31T16:33:54.415Z,2.10
2018-01-31T16:36:21.973Z,1.30
2018-01-31T16:38:49.464Z,1.70
2018-01-31T16:41:16.991Z,1.40
2018-01-31T16:43:44.485Z,2.03
2018-01-31T16:46:12.008Z,1.77
2018-01-31T16:48:39.566Z,4.40
2018-01-31T16:51:07.023Z,2.40
2018-01-31T16:53:34.490Z,1.63
2018-01-31T16:56:01.967Z,1.67
2018-01-31T16:58:29.395Z,2.03
2018-01-31T17:00:56.831Z,1.93
2018-01-31T17:03:24.410Z,1.93
2018-01-31T17:05:51.970Z,2.03
2018-01-31T17:08:19.427Z,1.70
2018-01-31T17:10:46.920Z,3.33
2018-01-31T17:13:14.443Z,2.67
2018-01-31T17:15:41.940Z,4.30
2018-01-31T17:18:09.562Z,3.40
2018-01-31T17:20:37.123Z,3.03
2018-01-31T17:23:04.579Z,2.50
2018-01-31T17:25:35.619Z,3.77
2018-01-31T17:28:03.521Z,2.20
2018-01-31T17:30:30.918Z,2.13
2018-01-31T17:32:58.439Z,2.97
2018-01-31T17:35:25.892Z,2.53
2018-01-31T17:37:53.416Z,3.13
2018-01-31T17:40:20.908Z,2.37
2018-01-31T17:42:48.535Z,2.43
2018-01-31T17:45:16.100Z,3.33
2018-01-31T17:47:43.540Z,2.10
2018-01-31T17:50:11.113Z,3.20
2018-01-31T17:52:38.773Z,2.40
2018-01-31T17:55:07.050Z,3.10
2018-01-31T17:57:35.761Z,2.30
2018-01-31T18:00:04.319Z,2.73
2018-01-31T18:02:31.981Z,3.80
2018-01-31T18:04:59.472Z,3.20
2018-01-31T18:07:26.923Z,3.00
2018-01-31T18:09:54.454Z,2.83
2018-01-31T18:12:21.868Z,2.83
2018-01-31T18:14:49.470Z,2.17
2018-01-31T18:17:17.032Z,2.27
2018-01-31T18:19:44.591Z,2.67
2018-01-31T18:22:12.252Z,2.50
2018-01-31T18:24:39.680Z,2.03
2018-01-31T18:27:07.108Z,2.77
2018-01-31T18:29:34.622Z,4.37
2018-01-31T18:32:02.182Z,2.00
2018-01-31T18:34:30.061Z,2.23
2018-01-31T18:36:57.506Z,2.30
2018-01-31T18:39:25.012Z,2.77
2018-01-31T18:41:52.522Z,2.17
2018-01-31T18:44:19.997Z,2.30
2018-01-31T18:46:47.437Z,1.97
2018-01-31T18:49:14.894Z,2.90
2018-01-31T18:51:42.453Z,2.40
2018-01-31T18:54:10.009Z,2.20
2018-01-31T18:56:37.572Z,2.57
2018-01-31T18:59:05.132Z,2.20
2018-01-31T19:01:32.587Z,2.33
2018-01-31T19:04:00.149Z,2.17
2018-01-31T19:06:27.606Z,2.50
2018-01-31T19:08:55.104Z,3.77
2018-01-31T19:11:22.657Z,3.30
2018-01-31T19:13:50.181Z,2.97
2018-01-31T19:16:18.253Z,3.60
2018-01-31T19:18:45.745Z,3.57
2018-01-31T19:21:13.148Z,3.60
2018-01-31T19:23:40.614Z,2.97
2018-01-31T19:26:08.901Z,4.57
2018-01-31T19:28:36.459Z,2.83
2018-01-31T19:31:03.883Z,4.10
2018-01-31T19:33:31.285Z,2.53
2018-01-31T19:35:58.831Z,3.63
2018-01-31T19:38:26.404Z,3.00
2018-01-31T19:40:53.805Z,2.90
2018-01-31T19:43:21.405Z,3.40
2018-01-31T19:45:48.917Z,3.00
2018-01-31T19:48:16.423Z,3.53
2018-01-31T19:50:43.932Z,3.80
2018-01-31T19:53:11.337Z,3.63
2018-01-31T19:55:38.896Z,2.43
2018-01-31T19:58:06.349Z,3.30
2018-01-31T20:00:33.914Z,2.77
2018-01-31T20:03:01.472Z,3.37
2018-01-31T20:05:29.237Z,3.80
2018-01-31T20:07:56.696Z,4.50
2018-01-31T20:10:24.255Z,3.97
2018-01-31T20:12:51.812Z,5.00
2018-01-31T20:15:19.371Z,4.77
2018-01-31T20:17:46.932Z,3.57
2018-01-31T20:20:14.424Z,3.73
2018-01-31T20:22:41.948Z,2.80
2018-01-31T20:25:09.508Z,2.90
2018-01-31T20:27:37.066Z,3.67
2018-01-31T20:30:04.580Z,3.53
2018-01-31T20:32:32.012Z,4.60
2018-01-31T20:34:59.540Z,4.00
2018-01-31T20:37:27.034Z,6.20
2018-01-31T20:39:54.556Z,6.13
2018-01-31T20:42:21.999Z,5.77
2018-01-31T20:44:49.504Z,6.00
2018-01-31T20:47:17.029Z,3.53
2018-01-31T20:49:44.487Z,7.60
2018-01-31T20:52:12.036Z,10.60
2018-01-31T20:54:39.608Z,6.60
2018-01-31T20:57:07.633Z,7.70
2018-01-31T20:59:35.172Z,10.33
2018-01-31T21:02:02.603Z,4.20
2018-01-31T21:04:30.298Z,5.73
2018-01-31T21:06:57.915Z,5.13
2018-01-31T21:09:25.410Z,5.17
2018-01-31T21:11:53.034Z,4.63
2018-01-31T21:14:20.695Z,5.47
2018-01-31T21:16:48.132Z,5.63
2018-01-31T21:19:15.729Z,5.77
2018-01-31T21:21:43.380Z,4.20
2018-01-31T21:24:11.036Z,9.10
2018-01-31T21:26:38.814Z,4.50
2018-01-31T21:29:06.369Z,3.47
2018-01-31T21:31:34.124Z,1.50
2018-01-31T21:34:01.683Z,2.23
2018-01-31T21:36:29.242Z,1.60
2018-01-31T21:38:56.800Z,1.63
2018-01-31T21:41:24.361Z,1.93
2018-01-31T21:43:51.864Z,1.60
2018-01-31T21:46:19.377Z,2.40
2018-01-31T21:48:50.114Z,3.33
2018-01-31T21:51:20.722Z,1.70
2018-01-31T21:53:53.428Z,1.57
2018-01-31T21:56:20.981Z,1.50
2018-01-31T21:58:48.643Z,1.50
2018-01-31T22:01:16.104Z,1.60
2018-01-31T22:03:43.660Z,1.50
2018-01-31T22:06:11.048Z,1.50
2018-01-31T22:08:38.504Z,1.40
2018-01-31T22:11:06.031Z,1.27
2018-01-31T22:13:33.524Z,4.57
2018-01-31T22:16:01.048Z,1.50
2018-01-31T22:18:28.476Z,1.90
2018-01-31T22:20:55.892Z,2.17
2018-01-31T22:23:23.280Z,2.53
2018-01-31T22:25:50.912Z,1.87
2018-01-31T22:28:18.435Z,3.10
2018-01-31T22:30:45.928Z,1.80
2018-01-31T22:33:13.377Z,2.93
2018-01-31T22:35:40.928Z,4.20
2018-01-31T22:38:08.468Z,1.60
2018-01-31T22:40:35.972Z,2.57
2018-01-31T22:43:03.485Z,2.90
2018-01-31T22:45:31.045Z,1.83
2018-01-31T22:47:58.605Z,1.60
2018-01-31T22:50:27.600Z,2.40
2018-01-31T22:52:55.875Z,3.57
2018-01-31T22:55:23.381Z,2.97
2018-01-31T22:57:50.996Z,3.03
2018-01-31T23:00:21.460Z,2.80
2018-01-31T23:02:49.082Z,3.37
2018-01-31T23:05:16.554Z,3.13
2018-01-31T23:07:44.099Z,2.30
2018-01-31T23:10:11.656Z,2.77
2018-01-31T23:12:45.155Z,4.53
2018-01-31T23:15:12.715Z,3.10
2018-01-31T23:17:46.220Z,2.03
2018-01-31T23:20:13.875Z,1.93
2018-01-31T23:22:41.346Z,2.63
2018-01-31T23:25:09.508Z,3.00
2018-01-31T23:27:37.066Z,4.10
2018-01-31T23:30:04.626Z,5.03
2018-01-31T23:32:32.184Z,4.30
2018-01-31T23:34:59.745Z,5.63
2018-01-31T23:37:27.241Z,6.70
2018-01-31T23:39:54.637Z,3.70
2018-01-31T23:42:22.218Z,5.47
2018-01-31T23:44:49.785Z,5.97
2018-01-31T23:47:17.384Z,6.07
2018-01-31T23:49:45.011Z,4.93
2018-01-31T23:52:12.505Z,5.33
2018-01-31T23:54:39.956Z,5.40
2018-01-31T23:57:07.472Z,9.90
2018-01-31T23:59:35.031Z,7.37
